createdAt,value
2019-06-01T00:00:15.102Z,11.60
2019-06-01T00:02:54.392Z,11.70
2019-06-01T00:05:17.436Z,12.23
2019-06-01T00:07:47.065Z,11.00
2019-06-01T00:10:16.529Z,10.75
2019-06-01T00:12:45.955Z,10.80
2019-06-01T00:15:15.693Z,10.70
2019-06-01T00:17:45.989Z,10.82
2019-06-01T00:20:16.658Z,11.28
2019-06-01T00:22:47.428Z,11.93
2019-06-01T00:25:16.838Z,13.55
2019-06-01T00:27:46.738Z,13.30
2019-06-01T00:30:26.568Z,13.10
2019-06-01T00:32:47.627Z,12.68
2019-06-01T00:35:17.508Z,13.65
2019-06-01T00:37:47.624Z,13.43
2019-06-01T00:40:17.256Z,12.47
2019-06-01T00:42:48.203Z,14.60
2019-06-01T00:45:17.901Z,13.80
2019-06-01T00:47:48.857Z,12.70
2019-06-01T00:50:18.710Z,13.05
2019-06-01T00:52:49.256Z,13.22
2019-06-01T00:55:18.742Z,13.30
2019-06-01T00:57:48.140Z,13.35
2019-06-01T01:00:17.887Z,13.93
2019-06-01T01:02:48.047Z,14.65
2019-06-01T01:05:22.074Z,13.58
2019-06-01T01:07:53.075Z,14.63
2019-06-01T01:10:24.201Z,13.62
2019-06-01T01:13:05.118Z,14.60
2019-06-01T01:15:35.841Z,13.80
2019-06-01T01:18:07.537Z,13.75
2019-06-01T01:20:38.123Z,12.60
2019-06-01T01:23:08.152Z,14.00
2019-06-01T01:25:37.553Z,16.02
2019-06-01T01:28:07.000Z,15.00
2019-06-01T01:30:36.470Z,15.00
2019-06-01T01:33:06.307Z,12.90
2019-06-01T01:35:36.812Z,13.98
2019-06-01T01:38:06.477Z,15.05
2019-06-01T01:40:35.855Z,15.10
2019-06-01T01:43:05.606Z,14.95
2019-06-01T01:45:35.173Z,14.78
2019-06-01T01:48:04.841Z,14.53
2019-06-01T01:50:34.461Z,13.80
2019-06-01T01:53:04.755Z,13.22
2019-06-01T01:55:34.421Z,13.28
2019-06-01T01:58:04.260Z,12.88
2019-06-01T02:00:45.217Z,13.08
2019-06-01T02:03:15.175Z,12.65
2019-06-01T02:05:44.802Z,12.37
2019-06-01T02:08:14.314Z,12.28
2019-06-01T02:10:43.783Z,11.55
2019-06-01T02:13:13.550Z,11.88
2019-06-01T02:15:43.637Z,12.43
2019-06-01T02:18:13.041Z,10.58
2019-06-01T02:20:42.490Z,11.55
2019-06-01T02:23:14.674Z,11.90
2019-06-01T02:25:44.115Z,12.18
2019-06-01T02:28:13.751Z,11.90
2019-06-01T02:30:43.379Z,11.50
2019-06-01T02:33:12.757Z,13.13
2019-06-01T02:35:42.149Z,12.43
2019-06-01T02:38:11.546Z,12.47
2019-06-01T02:40:41.286Z,13.48
2019-06-01T02:43:11.018Z,12.73
2019-06-01T02:45:40.486Z,12.63
2019-06-01T02:48:10.014Z,13.58
2019-06-01T02:50:39.399Z,12.60
2019-06-01T02:53:09.006Z,11.70
2019-06-01T02:55:38.432Z,15.08
2019-06-01T02:58:07.812Z,13.10
2019-06-01T03:00:49.481Z,13.60
2019-06-01T03:03:19.198Z,14.05
2019-06-01T03:05:50.633Z,14.13
2019-06-01T03:08:20.585Z,15.63
2019-06-01T03:10:52.570Z,14.85
2019-06-01T03:13:24.940Z,14.70
2019-06-01T03:15:57.188Z,14.95
2019-06-01T03:18:30.334Z,14.35
2019-06-01T03:21:04.699Z,13.65
2019-06-01T03:26:06.251Z,13.43
2019-06-01T03:28:38.762Z,13.35
2019-06-01T03:31:10.510Z,12.85
2019-06-01T03:33:39.473Z,11.85
2019-06-01T03:36:09.106Z,12.60
2019-06-01T03:38:38.707Z,12.82
2019-06-01T03:41:08.338Z,12.82
2019-06-01T03:43:37.716Z,13.43
2019-06-01T03:46:07.118Z,14.18
2019-06-01T03:48:36.522Z,13.78
2019-06-01T03:51:06.165Z,13.70
2019-06-01T03:53:35.755Z,13.10
2019-06-01T03:56:05.487Z,14.78
2019-06-01T03:58:34.985Z,14.55
2019-06-01T04:01:05.178Z,14.90
2019-06-01T04:03:34.632Z,14.75
2019-06-01T04:06:05.290Z,15.95
2019-06-01T04:08:34.855Z,15.10
2019-06-01T04:11:06.234Z,15.13
2019-06-01T04:13:36.783Z,13.95
2019-06-01T04:16:06.349Z,15.55
2019-06-01T04:18:35.877Z,12.90
2019-06-01T04:21:08.058Z,12.30
2019-06-01T04:23:37.813Z,11.85
2019-06-01T04:26:08.109Z,13.30
2019-06-01T04:28:45.312Z,13.62
2019-06-01T04:31:14.754Z,13.32
2019-06-01T04:33:44.142Z,13.58
2019-06-01T04:36:13.541Z,12.40
2019-06-01T04:38:42.956Z,13.20
2019-06-01T04:41:12.360Z,13.85
2019-06-01T04:43:41.840Z,13.20
2019-06-01T04:46:12.357Z,13.05
2019-06-01T04:48:41.816Z,12.50
2019-06-01T04:51:12.138Z,12.60
2019-06-01T04:53:42.311Z,12.37
2019-06-01T04:56:12.957Z,12.98
2019-06-01T04:58:42.497Z,13.55
2019-06-01T05:01:13.041Z,12.28
2019-06-01T05:03:42.613Z,12.43
2019-06-01T05:06:13.324Z,13.70
2019-06-01T05:08:42.977Z,14.70
2019-06-01T05:11:13.582Z,14.75
2019-06-01T05:13:42.982Z,13.38
2019-06-01T05:16:13.425Z,11.70
2019-06-01T05:18:43.537Z,11.10
2019-06-01T05:21:15.135Z,11.18
2019-06-01T05:23:44.796Z,10.50
2019-06-01T05:26:15.069Z,9.80
2019-06-01T05:28:44.721Z,9.15
2019-06-01T05:31:22.002Z,8.63
2019-06-01T05:33:46.573Z,8.40
2019-06-01T05:36:16.309Z,8.10
2019-06-01T05:38:45.733Z,7.85
2019-06-01T05:41:15.204Z,7.55
2019-06-01T05:43:44.590Z,7.50
2019-06-01T05:46:14.329Z,6.65
2019-06-01T05:48:43.783Z,6.10
2019-06-01T05:51:15.575Z,6.75
2019-06-01T05:53:44.297Z,5.78
2019-06-01T05:56:14.762Z,5.45
2019-06-01T05:58:44.401Z,5.33
2019-06-01T06:01:14.684Z,5.50
2019-06-01T06:03:45.479Z,4.40
2019-06-01T06:06:15.800Z,4.80
2019-06-01T06:08:46.413Z,4.40
2019-06-01T06:11:16.710Z,5.42
2019-06-01T06:13:46.494Z,4.03
2019-06-01T06:16:15.914Z,4.25
2019-06-01T06:18:45.406Z,4.05
2019-06-01T06:21:16.002Z,4.28
2019-06-01T06:23:45.480Z,4.50
2019-06-01T06:26:16.834Z,5.08
2019-06-01T06:28:46.243Z,6.20
2019-06-01T06:31:15.657Z,6.00
2019-06-01T06:33:55.989Z,5.08
2019-06-01T06:36:16.167Z,4.97
2019-06-01T06:38:45.872Z,4.20
2019-06-01T06:41:16.049Z,4.05
2019-06-01T06:43:45.487Z,3.22
2019-06-01T06:46:14.956Z,2.55
2019-06-01T06:48:44.521Z,2.60
2019-06-01T06:51:15.129Z,2.67
2019-06-01T06:53:44.691Z,2.67
2019-06-01T06:56:14.080Z,2.50
2019-06-01T06:58:43.479Z,2.80
2019-06-01T07:01:13.350Z,2.65
2019-06-01T07:03:43.004Z,2.75
2019-06-01T07:06:13.153Z,2.60
2019-06-01T07:08:42.539Z,2.85
2019-06-01T07:11:12.258Z,2.92
2019-06-01T07:13:41.870Z,3.20
2019-06-01T07:16:11.552Z,2.60
2019-06-01T07:18:40.966Z,3.65
2019-06-01T07:21:10.350Z,3.30
2019-06-01T07:23:39.908Z,2.95
2019-06-01T07:26:09.288Z,2.75
2019-06-01T07:28:38.851Z,2.98
2019-06-01T07:31:08.228Z,2.72
2019-06-01T07:33:37.617Z,3.20
2019-06-01T07:36:07.070Z,2.70
2019-06-01T07:38:39.014Z,2.60
2019-06-01T07:41:08.560Z,2.92
2019-06-01T07:43:38.134Z,3.22
2019-06-01T07:46:07.573Z,3.52
2019-06-01T07:48:37.087Z,3.05
2019-06-01T07:51:06.648Z,2.92
2019-06-01T07:53:36.573Z,3.72
2019-06-01T07:56:06.355Z,3.08
2019-06-01T07:58:35.862Z,2.80
2019-06-01T08:01:06.775Z,2.85
2019-06-01T08:03:36.502Z,2.60
2019-06-01T08:06:06.957Z,2.72
2019-06-01T08:08:36.723Z,2.50
2019-06-01T08:11:06.728Z,2.25
2019-06-01T08:13:36.542Z,2.00
2019-06-01T08:16:06.278Z,2.17
2019-06-01T08:18:35.863Z,2.15
2019-06-01T08:21:05.483Z,2.20
2019-06-01T08:23:35.217Z,2.00
2019-06-01T08:26:04.857Z,2.02
2019-06-01T08:28:34.813Z,1.80
2019-06-01T08:31:04.711Z,1.90
2019-06-01T08:33:35.112Z,2.00
2019-06-01T08:36:04.622Z,2.50
2019-06-01T08:38:34.135Z,2.52
2019-06-01T08:41:03.569Z,2.33
2019-06-01T08:43:33.948Z,2.12
2019-06-01T08:46:03.610Z,2.50
2019-06-01T08:48:34.072Z,2.17
2019-06-01T08:51:03.508Z,2.12
2019-06-01T08:53:34.124Z,2.37
2019-06-01T08:56:04.020Z,2.12
2019-06-01T08:58:34.655Z,2.33
2019-06-01T09:01:04.466Z,2.25
2019-06-01T09:03:39.930Z,2.42
2019-06-01T09:06:05.542Z,2.83
2019-06-01T09:08:35.273Z,2.40
2019-06-01T09:11:04.886Z,2.75
2019-06-01T09:13:35.538Z,2.60
2019-06-01T09:16:05.705Z,2.83
2019-06-01T09:18:35.822Z,3.37
2019-06-01T09:21:05.679Z,2.80
2019-06-01T09:23:37.168Z,3.08
2019-06-01T09:26:06.413Z,2.98
2019-06-01T09:28:36.207Z,3.42
2019-06-01T09:31:05.848Z,2.72
2019-06-01T09:33:37.002Z,2.85
2019-06-01T09:36:06.549Z,2.30
2019-06-01T09:38:37.793Z,2.58
2019-06-01T09:41:07.270Z,2.50
2019-06-01T09:43:37.211Z,2.60
2019-06-01T09:46:06.712Z,2.37
2019-06-01T09:48:39.366Z,2.70
2019-06-01T09:51:08.928Z,3.45
2019-06-01T09:53:38.852Z,3.37
2019-06-01T09:56:08.233Z,3.12
2019-06-01T09:58:38.860Z,2.80
2019-06-01T10:01:08.534Z,2.70
2019-06-01T10:03:38.578Z,2.58
2019-06-01T10:06:08.066Z,1.98
2019-06-01T10:08:38.177Z,2.20
2019-06-01T10:11:07.571Z,2.35
2019-06-01T10:13:38.442Z,1.90
2019-06-01T10:16:08.937Z,2.05
2019-06-01T10:18:39.004Z,2.10
2019-06-01T10:21:08.508Z,2.02
2019-06-01T10:23:38.502Z,1.98
2019-06-01T10:26:08.057Z,2.72
2019-06-01T10:28:37.851Z,2.92
2019-06-01T10:31:07.446Z,3.33
2019-06-01T10:33:37.413Z,3.22
2019-06-01T10:36:19.750Z,2.80
2019-06-01T10:38:39.358Z,2.60
2019-06-01T10:41:08.782Z,2.90
2019-06-01T10:43:38.168Z,2.70
2019-06-01T10:46:07.555Z,3.10
2019-06-01T10:48:38.107Z,3.60
2019-06-01T10:51:07.811Z,3.40
2019-06-01T10:53:38.194Z,2.33
2019-06-01T10:56:07.656Z,1.90
2019-06-01T10:58:54.716Z,1.57
2019-06-01T11:01:08.160Z,2.02
2019-06-01T11:03:38.705Z,2.25
2019-06-01T11:06:08.205Z,2.10
2019-06-01T11:08:39.056Z,1.90
2019-06-01T11:11:08.415Z,1.70
2019-06-01T11:13:38.964Z,1.60
2019-06-01T11:16:08.605Z,1.82
2019-06-01T11:18:39.441Z,2.00
2019-06-01T11:21:09.246Z,2.00
2019-06-01T11:23:42.644Z,1.72
2019-06-01T11:26:10.011Z,1.95
2019-06-01T11:28:40.102Z,1.77
2019-06-01T11:31:09.627Z,1.98
2019-06-01T11:33:40.132Z,2.05
2019-06-01T11:36:09.595Z,1.65
2019-06-01T11:38:40.331Z,2.30
2019-06-01T11:41:10.870Z,2.30
2019-06-01T11:43:40.670Z,1.90
2019-06-01T11:46:10.084Z,2.35
2019-06-01T11:48:39.483Z,2.10
2019-06-01T11:51:10.337Z,1.60
2019-06-01T11:53:41.145Z,1.67
2019-06-01T11:56:11.262Z,1.65
2019-06-01T11:58:41.429Z,1.72
2019-06-01T12:01:10.977Z,1.85
2019-06-01T12:03:41.713Z,2.30
2019-06-01T12:06:11.147Z,2.17
2019-06-01T12:08:42.108Z,2.08
2019-06-01T12:11:11.701Z,2.17
2019-06-01T12:13:42.208Z,1.87
2019-06-01T12:16:11.739Z,1.82
2019-06-01T12:18:41.119Z,1.82
2019-06-01T12:21:10.500Z,1.90
2019-06-01T12:23:41.467Z,2.00
2019-06-01T12:26:11.144Z,1.67
2019-06-01T12:28:41.571Z,1.60
2019-06-01T12:31:11.180Z,1.50
2019-06-01T12:33:41.923Z,1.30
2019-06-01T12:36:12.393Z,1.72
2019-06-01T12:38:54.073Z,1.87
2019-06-01T12:41:24.586Z,1.45
2019-06-01T12:43:55.856Z,1.35
2019-06-01T12:46:25.219Z,1.50
2019-06-01T12:48:54.695Z,1.98
2019-06-01T12:51:23.911Z,2.02
2019-06-01T12:53:53.313Z,1.40
2019-06-01T12:56:22.694Z,1.70
2019-06-01T12:58:52.333Z,1.50
2019-06-01T13:01:21.757Z,1.45
2019-06-01T13:03:51.706Z,1.60
2019-06-01T13:06:21.538Z,1.50
2019-06-01T13:08:50.925Z,2.83
2019-06-01T13:11:20.512Z,1.30
2019-06-01T13:13:49.901Z,1.50
2019-06-01T13:16:19.388Z,1.17
2019-06-01T13:18:49.531Z,1.40
2019-06-01T13:21:18.954Z,1.42
2019-06-01T13:23:49.590Z,1.62
2019-06-01T13:26:19.297Z,1.40
2019-06-01T13:28:48.779Z,1.47
2019-06-01T13:31:18.178Z,1.40
2019-06-01T13:33:51.634Z,1.37
2019-06-01T13:36:18.817Z,1.32
2019-06-01T13:38:48.805Z,1.30
2019-06-01T13:41:18.239Z,1.12
2019-06-01T13:43:47.668Z,1.82
2019-06-01T13:46:17.125Z,1.77
2019-06-01T13:48:47.479Z,1.52
2019-06-01T13:51:16.935Z,1.60
2019-06-01T13:53:46.415Z,1.98
2019-06-01T13:56:16.068Z,1.82
2019-06-01T13:58:46.355Z,1.70
2019-06-01T14:01:15.813Z,1.85
2019-06-01T14:03:45.198Z,1.62
2019-06-01T14:06:14.572Z,1.50
2019-06-01T14:08:44.998Z,1.98
2019-06-01T14:11:14.717Z,1.50
2019-06-01T14:13:45.344Z,1.20
2019-06-01T14:16:14.974Z,1.77
2019-06-01T14:18:45.627Z,1.75
2019-06-01T14:21:15.066Z,1.42
2019-06-01T14:23:45.665Z,1.60
2019-06-01T14:26:16.195Z,1.35
2019-06-01T14:28:46.079Z,1.77
2019-06-01T14:31:15.585Z,1.62
2019-06-01T14:33:46.391Z,1.42
2019-06-01T14:36:15.920Z,1.60
2019-06-01T14:38:47.635Z,1.57
2019-06-01T14:41:16.494Z,1.30
2019-06-01T14:43:46.910Z,1.30
2019-06-01T14:46:16.455Z,1.55
2019-06-01T14:48:49.265Z,1.40
2019-06-01T14:51:18.813Z,1.40
2019-06-01T14:53:49.480Z,1.57
2019-06-01T14:56:18.940Z,1.57
2019-06-01T14:58:49.817Z,1.25
2019-06-01T15:01:32.079Z,1.22
2019-06-01T15:03:50.778Z,1.42
2019-06-01T15:06:21.918Z,1.30
2019-06-01T15:09:10.707Z,1.32
2019-06-01T15:11:22.613Z,1.67
2019-06-01T15:13:52.409Z,1.37
2019-06-01T15:16:21.969Z,1.40
2019-06-01T15:18:51.580Z,1.20
2019-06-01T15:21:21.075Z,1.60
2019-06-01T15:23:50.454Z,1.70
2019-06-01T15:26:20.203Z,1.60
2019-06-01T15:28:50.559Z,1.70
2019-06-01T15:31:20.267Z,1.55
2019-06-01T15:33:49.641Z,1.55
2019-06-01T15:36:19.030Z,1.35
2019-06-01T15:38:48.627Z,1.72
2019-06-01T15:41:18.013Z,1.40
2019-06-01T15:43:47.548Z,1.25
2019-06-01T15:46:16.940Z,1.52
2019-06-01T15:48:46.336Z,1.52
2019-06-01T15:51:15.842Z,1.65
2019-06-01T15:53:45.211Z,1.52
2019-06-01T15:56:14.605Z,1.47
2019-06-01T15:58:52.795Z,1.32
2019-06-01T16:01:34.629Z,1.70
2019-06-01T16:04:04.362Z,1.87
2019-06-01T16:06:33.920Z,1.47
2019-06-01T16:09:03.764Z,1.82
2019-06-01T16:11:33.297Z,1.62
2019-06-01T16:14:04.026Z,1.60
2019-06-01T16:16:33.593Z,1.72
2019-06-01T16:19:07.684Z,1.62
2019-06-01T16:21:34.949Z,1.40
2019-06-01T16:24:04.974Z,1.72
2019-06-01T16:26:34.739Z,1.30
2019-06-01T16:29:05.069Z,1.62
2019-06-01T16:31:34.828Z,1.62
2019-06-01T16:34:05.222Z,1.72
2019-06-01T16:36:34.826Z,1.72
2019-06-01T16:39:07.917Z,1.52
2019-06-01T16:41:38.624Z,2.17
2019-06-01T16:44:08.162Z,1.90
2019-06-01T16:46:37.566Z,1.72
2019-06-01T16:49:06.972Z,2.30
2019-06-01T16:51:59.137Z,1.60
2019-06-01T16:54:28.834Z,1.98
2019-06-01T16:56:58.245Z,1.80
2019-06-01T16:59:27.680Z,1.92
2019-06-01T17:01:58.518Z,1.72
2019-06-01T17:04:28.403Z,2.08
2019-06-01T17:06:58.694Z,1.92
2019-06-01T17:09:28.190Z,2.27
2019-06-01T17:11:58.813Z,1.60
2019-06-01T17:14:28.370Z,1.70
2019-06-01T17:16:58.880Z,6.10
2019-06-01T17:19:29.653Z,2.17
2019-06-01T17:21:59.417Z,1.85
2019-06-01T17:24:28.916Z,1.75
2019-06-01T17:26:59.667Z,1.55
2019-06-01T17:29:29.163Z,1.70
2019-06-01T17:32:16.856Z,1.90
2019-06-01T17:34:31.463Z,2.30
2019-06-01T17:37:01.043Z,1.40
2019-06-01T17:39:30.421Z,2.30
2019-06-01T17:42:00.330Z,3.85
2019-06-01T17:44:30.146Z,2.08
2019-06-01T17:46:59.943Z,2.22
2019-06-01T17:49:29.488Z,2.80
2019-06-01T17:51:58.872Z,3.40
2019-06-01T17:54:28.307Z,1.90
2019-06-01T17:56:57.861Z,1.80
2019-06-01T17:59:27.255Z,2.02
2019-06-01T18:01:56.870Z,4.12
2019-06-01T18:04:26.291Z,2.40
2019-06-01T18:06:55.696Z,2.12
2019-06-01T18:09:25.185Z,1.75
2019-06-01T18:11:54.556Z,2.00
2019-06-01T18:14:24.012Z,1.70
2019-06-01T18:16:53.411Z,1.90
2019-06-01T18:19:23.007Z,2.20
2019-06-01T18:21:52.716Z,1.90
2019-06-01T18:24:22.953Z,2.30
2019-06-01T18:26:52.335Z,2.70
2019-06-01T18:29:21.704Z,4.00
2019-06-01T18:31:51.548Z,3.50
2019-06-01T18:34:21.198Z,2.20
2019-06-01T18:36:51.556Z,2.05
2019-06-01T18:39:21.415Z,1.80
2019-06-01T18:41:50.807Z,1.92
2019-06-01T18:44:20.181Z,2.15
2019-06-01T18:46:49.592Z,2.52
2019-06-01T18:49:18.991Z,1.98
2019-06-01T18:51:48.466Z,2.60
2019-06-01T18:54:17.856Z,3.10
2019-06-01T18:56:47.319Z,16.82
2019-06-01T18:59:16.852Z,9.85
2019-06-01T19:01:46.273Z,6.95
2019-06-01T19:04:16.028Z,4.85
2019-06-01T19:06:45.624Z,5.62
2019-06-01T19:09:15.631Z,4.87
2019-06-01T19:11:45.051Z,2.50
2019-06-01T19:14:14.459Z,2.55
2019-06-01T19:16:43.852Z,1.92
2019-06-01T19:19:14.455Z,2.33
2019-06-01T19:21:44.142Z,2.08
2019-06-01T19:24:14.628Z,2.27
2019-06-01T19:26:44.203Z,2.33
2019-06-01T19:29:14.896Z,2.10
2019-06-01T19:31:47.436Z,2.17
2019-06-01T19:34:18.024Z,2.40
2019-06-01T19:36:50.139Z,2.35
2019-06-01T19:39:20.312Z,2.20
2019-06-01T19:41:49.920Z,2.50
2019-06-01T19:44:19.390Z,2.27
2019-06-01T19:46:48.833Z,2.50
2019-06-01T19:49:19.042Z,2.22
2019-06-01T19:51:48.736Z,2.80
2019-06-01T19:54:19.030Z,2.80
2019-06-01T19:56:48.475Z,2.47
2019-06-01T19:59:18.137Z,2.90
2019-06-01T20:01:47.484Z,2.55
2019-06-01T20:04:16.991Z,2.77
2019-06-01T20:06:46.424Z,2.72
2019-06-01T20:09:17.063Z,2.90
2019-06-01T20:12:01.025Z,3.55
2019-06-01T20:14:19.196Z,3.77
2019-06-01T20:16:49.983Z,3.67
2019-06-01T20:19:20.334Z,3.95
2019-06-01T20:21:49.791Z,3.80
2019-06-01T20:24:21.550Z,3.55
2019-06-01T20:26:50.934Z,3.95
2019-06-01T20:29:21.722Z,4.15
2019-06-01T20:31:51.246Z,4.22
2019-06-01T20:34:20.044Z,5.55
2019-06-01T20:36:49.507Z,5.40
2019-06-01T20:39:20.268Z,6.20
2019-06-01T20:41:49.977Z,5.42
2019-06-01T20:44:19.362Z,6.17
2019-06-01T20:46:48.819Z,5.15
2019-06-01T20:49:18.620Z,6.15
2019-06-01T20:51:48.948Z,5.62
2019-06-01T20:54:19.053Z,5.80
2019-06-01T20:56:48.499Z,11.40
2019-06-01T20:59:20.247Z,4.90
2019-06-01T21:01:49.517Z,8.53
2019-06-01T21:04:20.269Z,11.38
2019-06-01T21:06:49.807Z,17.85
2019-06-01T21:09:19.982Z,15.98
2019-06-01T21:11:49.562Z,8.40
2019-06-01T21:14:19.064Z,5.70
2019-06-01T21:16:48.721Z,5.83
2019-06-01T21:19:18.229Z,5.00
2019-06-01T21:21:47.603Z,5.78
2019-06-01T21:24:17.151Z,5.75
2019-06-01T21:26:46.678Z,5.62
2019-06-01T21:29:16.717Z,5.65
2019-06-01T21:31:47.237Z,5.75
2019-06-01T21:34:17.708Z,7.08
2019-06-01T21:36:47.117Z,6.45
2019-06-01T21:39:17.504Z,9.45
2019-06-01T21:41:47.058Z,6.20
2019-06-01T21:44:17.445Z,6.55
2019-06-01T21:46:47.066Z,9.48
2019-06-01T21:49:17.663Z,6.55
2019-06-01T21:51:47.178Z,6.97
2019-06-01T21:54:17.992Z,8.15
2019-06-01T21:56:47.495Z,13.15
2019-06-01T21:59:17.120Z,12.82
2019-06-01T22:01:46.516Z,10.80
2019-06-01T22:04:16.726Z,5.92
2019-06-01T22:06:46.618Z,6.72
2019-06-01T22:09:17.131Z,5.80
2019-06-01T22:11:47.790Z,6.25
2019-06-01T22:14:17.413Z,6.12
2019-06-01T22:16:46.868Z,6.28
2019-06-01T22:19:17.468Z,6.90
2019-06-01T22:21:46.923Z,7.62
2019-06-01T22:24:17.724Z,6.95
2019-06-01T22:26:47.204Z,7.55
2019-06-01T22:29:16.593Z,7.72
2019-06-01T22:31:45.971Z,7.40
2019-06-01T22:34:15.565Z,7.95
2019-06-01T22:36:45.017Z,7.75
2019-06-01T22:39:14.386Z,7.45
2019-06-01T22:41:45.500Z,7.42
2019-06-01T22:44:14.889Z,9.65
2019-06-01T22:46:44.426Z,10.03
2019-06-01T22:49:13.995Z,10.48
2019-06-01T22:51:43.925Z,11.38
2019-06-01T22:54:13.320Z,11.05
2019-06-01T22:56:43.187Z,11.78
2019-06-01T22:59:12.573Z,12.43
2019-06-01T23:01:42.045Z,12.58
2019-06-01T23:04:12.451Z,12.68
2019-06-01T23:06:42.005Z,10.98
2019-06-01T23:09:11.698Z,8.78
2019-06-01T23:11:41.083Z,9.13
2019-06-01T23:14:10.457Z,9.08
2019-06-01T23:16:39.960Z,8.88
2019-06-01T23:19:09.492Z,10.93
2019-06-01T23:21:39.074Z,12.13
2019-06-01T23:24:08.650Z,13.55
2019-06-01T23:26:38.565Z,12.30
2019-06-01T23:29:07.962Z,10.55
2019-06-01T23:31:37.404Z,12.00
2019-06-01T23:34:07.156Z,10.88
2019-06-01T23:36:36.548Z,10.40
2019-06-01T23:39:07.446Z,10.48
2019-06-01T23:41:36.831Z,9.80
2019-06-01T23:44:11.618Z,10.75
2019-06-01T23:46:37.783Z,9.58
2019-06-01T23:49:07.161Z,9.95
2019-06-01T23:51:37.301Z,9.95
2019-06-01T23:54:06.756Z,10.03
2019-06-01T23:56:37.999Z,9.48
2019-06-01T23:59:07.676Z,9.30
